createdAt,value
2022-08-25T00:00:14.488Z,1.00
2022-08-25T00:02:54.866Z,1.00
2022-08-25T00:05:27.700Z,1.00
2022-08-25T00:07:57.390Z,1.00
2022-08-25T00:10:25.206Z,1.00
2022-08-25T00:12:52.756Z,1.00
2022-08-25T00:15:24.088Z,1.00
2022-08-25T00:17:52.979Z,1.00
2022-08-25T00:20:20.551Z,1.00
2022-08-25T00:22:49.022Z,65.80
2022-08-25T00:25:16.957Z,99.90
2022-08-25T00:27:44.487Z,99.90
2022-08-25T00:30:15.969Z,99.90
2022-08-25T00:32:55.293Z,1.00
2022-08-25T00:35:26.664Z,65.90
2022-08-25T00:37:54.238Z,1.00
2022-08-25T00:40:23.104Z,99.90
2022-08-25T00:42:50.535Z,99.90
2022-08-25T00:45:18.963Z,1.00
2022-08-25T00:47:46.902Z,99.90
2022-08-25T00:50:14.564Z,1.00
2022-08-25T00:52:50.284Z,1.00
2022-08-25T00:55:23.638Z,99.90
2022-08-25T00:57:56.913Z,1.00
2022-08-25T01:00:32.478Z,96.60
2022-08-25T01:03:00.157Z,99.90
2022-08-25T01:05:29.127Z,1.00
2022-08-25T01:07:58.731Z,1.00
2022-08-25T01:10:28.363Z,1.00
2022-08-25T01:13:05.826Z,99.90
2022-08-25T01:15:34.990Z,99.90
2022-08-25T01:18:05.518Z,47.00
2022-08-25T01:20:34.848Z,1.00
2022-08-25T01:23:02.476Z,66.20
2022-08-25T01:26:05.916Z,99.90
2022-08-25T01:28:33.614Z,55.90
2022-08-25T01:31:01.221Z,99.90
2022-08-25T01:33:28.691Z,99.90
2022-08-25T01:35:56.481Z,99.90
2022-08-25T01:38:23.871Z,99.90
2022-08-25T01:40:51.460Z,1.00
2022-08-25T01:43:27.140Z,99.90
2022-08-25T01:45:54.735Z,1.00
2022-08-25T01:48:22.260Z,99.90
2022-08-25T01:50:49.761Z,1.00
2022-08-25T01:53:23.033Z,99.90
2022-08-25T01:55:54.127Z,11.80
2022-08-25T01:58:30.662Z,1.00
2022-08-25T02:01:01.734Z,99.90
2022-08-25T02:03:29.443Z,99.90
2022-08-25T02:05:58.408Z,99.90
2022-08-25T02:08:26.264Z,99.90
2022-08-25T02:10:55.869Z,99.90
2022-08-25T02:13:26.899Z,99.90
2022-08-25T02:16:01.197Z,99.90
2022-08-25T02:18:29.376Z,99.90
2022-08-25T02:20:56.937Z,99.90
2022-08-25T02:23:24.425Z,99.90
2022-08-25T02:25:51.847Z,99.90
2022-08-25T02:28:19.513Z,99.90
2022-08-25T02:30:48.200Z,99.90
2022-08-25T02:33:15.951Z,99.90
2022-08-25T02:35:43.422Z,1.00
2022-08-25T02:38:11.002Z,1.00
2022-08-25T02:40:39.023Z,1.00
2022-08-25T02:43:06.600Z,28.60
2022-08-25T02:45:34.018Z,99.90
2022-08-25T02:48:01.562Z,99.90
2022-08-25T02:50:29.742Z,99.90
2022-08-25T02:52:57.311Z,99.90
2022-08-25T02:55:24.820Z,99.90
2022-08-25T02:57:52.313Z,99.90
2022-08-25T03:00:20.135Z,1.00
2022-08-25T03:02:47.625Z,99.90
2022-08-25T03:05:16.361Z,99.90
2022-08-25T03:07:43.922Z,1.00
2022-08-25T03:10:16.710Z,99.90
2022-08-25T03:12:44.343Z,99.90
2022-08-25T03:15:16.828Z,1.00
2022-08-25T03:17:46.243Z,99.90
2022-08-25T03:20:14.518Z,99.90
2022-08-25T03:22:42.845Z,99.90
2022-08-25T03:25:29.198Z,1.00
2022-08-25T03:27:56.671Z,1.00
2022-08-25T03:30:24.483Z,99.90
2022-08-25T03:32:52.293Z,1.00
2022-08-25T03:35:20.172Z,1.00
2022-08-25T03:37:47.701Z,1.00
2022-08-25T03:40:19.907Z,99.90
2022-08-25T03:42:47.644Z,99.90
2022-08-25T03:45:17.020Z,99.90
2022-08-25T03:47:47.743Z,99.90
2022-08-25T03:50:16.371Z,99.90
2022-08-25T03:52:44.352Z,99.90
2022-08-25T03:55:14.599Z,1.00
2022-08-25T03:57:42.415Z,1.00
2022-08-25T04:00:12.406Z,1.00
2022-08-25T04:02:41.184Z,1.00
2022-08-25T04:05:09.685Z,26.90
2022-08-25T04:07:37.601Z,31.20
2022-08-25T04:10:07.680Z,1.00
2022-08-25T04:12:35.394Z,1.00
2022-08-25T04:15:07.662Z,57.80
2022-08-25T04:17:39.134Z,1.00
2022-08-25T04:20:09.115Z,1.00
2022-08-25T04:22:38.363Z,99.90
2022-08-25T04:25:07.345Z,99.90
2022-08-25T04:27:35.808Z,99.90
2022-08-25T04:30:04.517Z,99.90
2022-08-25T04:32:32.319Z,99.90
2022-08-25T04:35:00.139Z,99.90
2022-08-25T04:37:27.664Z,99.90
2022-08-25T04:39:55.093Z,99.90
2022-08-25T04:42:23.164Z,99.90
2022-08-25T04:44:50.533Z,80.80
2022-08-25T04:47:18.041Z,51.50
2022-08-25T04:49:45.489Z,10.50
2022-08-25T04:52:14.351Z,1.00
2022-08-25T04:54:43.026Z,1.00
2022-08-25T04:57:10.462Z,1.00
2022-08-25T04:59:37.891Z,99.90
2022-08-25T05:02:06.847Z,1.00
2022-08-25T05:04:36.394Z,99.90
2022-08-25T05:07:04.874Z,99.90
2022-08-25T05:09:33.080Z,99.90
2022-08-25T05:35:49.339Z,16.70
2022-08-25T05:54:52.293Z,99.90
2022-08-25T05:57:19.848Z,1.00
2022-08-25T05:59:47.396Z,1.00
2022-08-25T06:02:33.553Z,1.00
2022-08-25T06:05:00.962Z,1.00
2022-08-25T06:07:28.571Z,99.90
2022-08-25T06:09:56.168Z,99.90
2022-08-25T06:12:23.654Z,99.90
2022-08-25T06:14:51.492Z,99.90
2022-08-25T06:17:18.913Z,99.90
2022-08-25T06:19:46.317Z,99.90
2022-08-25T06:22:13.757Z,99.90
2022-08-25T06:24:41.421Z,99.90
2022-08-25T06:27:08.880Z,99.90
2022-08-25T06:29:36.318Z,96.00
2022-08-25T06:32:06.141Z,57.10
2022-08-25T06:34:33.835Z,1.00
2022-08-25T06:37:01.705Z,1.00
2022-08-25T06:39:29.167Z,1.00
2022-08-25T06:41:57.955Z,1.00
2022-08-25T06:44:27.645Z,1.00
2022-08-25T06:46:55.722Z,1.00
2022-08-25T06:49:27.832Z,1.00
2022-08-25T06:51:55.594Z,1.00
2022-08-25T06:54:23.042Z,99.90
2022-08-25T06:56:51.664Z,99.90
2022-08-25T06:59:19.293Z,99.90
2022-08-25T07:01:47.047Z,99.90
2022-08-25T07:04:17.280Z,99.90
2022-08-25T07:06:45.038Z,99.90
2022-08-25T07:09:13.394Z,99.90
2022-08-25T07:11:42.139Z,99.90
2022-08-25T07:14:11.990Z,99.90
2022-08-25T07:16:42.428Z,99.90
2022-08-25T07:19:12.021Z,99.90
2022-08-25T07:21:45.930Z,94.10
2022-08-25T07:24:14.953Z,73.10
2022-08-25T07:26:43.627Z,65.30
2022-08-25T07:29:17.941Z,51.50
2022-08-25T07:31:46.075Z,44.20
2022-08-25T07:34:40.130Z,41.40
2022-08-25T07:37:23.773Z,10.00
2022-08-25T07:40:03.324Z,1.00
2022-08-25T07:42:32.283Z,1.00
2022-08-25T07:44:59.872Z,1.00
2022-08-25T07:47:27.395Z,1.00
2022-08-25T07:49:54.994Z,1.00
2022-08-25T07:52:24.735Z,1.00
2022-08-25T07:54:54.419Z,1.00
2022-08-25T07:57:24.735Z,1.00
2022-08-25T07:59:52.923Z,1.00
2022-08-25T08:02:20.678Z,1.00
2022-08-25T08:04:53.949Z,1.00
2022-08-25T08:07:42.002Z,99.90
2022-08-25T08:10:47.943Z,99.90
2022-08-25T08:13:02.849Z,99.90
2022-08-25T08:15:30.502Z,99.90
2022-08-25T08:17:59.789Z,99.90
2022-08-25T08:20:29.101Z,99.90
2022-08-25T08:22:57.254Z,99.90
2022-08-25T08:25:27.366Z,99.90
2022-08-25T08:27:56.052Z,99.90
2022-08-25T08:30:26.365Z,99.90
2022-08-25T08:33:19.587Z,99.90
2022-08-25T08:35:43.492Z,99.90
2022-08-25T08:38:17.320Z,99.90
2022-08-25T08:41:23.006Z,99.90
2022-08-25T08:44:01.485Z,99.90
2022-08-25T08:46:39.636Z,99.90
2022-08-25T08:49:23.144Z,99.90
2022-08-25T08:52:01.718Z,99.90
2022-08-25T08:54:36.170Z,99.90
2022-08-25T08:57:10.702Z,99.90
2022-08-25T08:59:55.674Z,99.90
2022-08-25T09:02:55.288Z,99.90
2022-08-25T09:05:27.789Z,99.90
2022-08-25T09:07:59.169Z,99.90
2022-08-25T09:10:35.763Z,99.90
2022-08-25T09:13:15.603Z,99.90
2022-08-25T09:16:20.657Z,99.90
2022-08-25T09:19:08.617Z,99.90
2022-08-25T09:21:45.491Z,99.90
2022-08-25T09:24:47.568Z,99.90
2022-08-25T09:27:44.909Z,99.90
2022-08-25T09:30:16.520Z,99.90
2022-08-25T09:32:52.350Z,99.90
2022-08-25T09:35:30.639Z,99.90
2022-08-25T09:38:02.961Z,99.90
2022-08-25T09:40:33.152Z,99.90
2022-08-25T09:43:18.131Z,99.90
2022-08-25T09:45:58.801Z,99.90
2022-08-25T09:48:28.939Z,99.90
2022-08-25T09:51:10.556Z,99.90
2022-08-25T09:54:03.366Z,99.90
2022-08-25T09:56:50.396Z,99.90
2022-08-25T09:59:38.285Z,99.90
2022-08-25T10:02:29.272Z,99.90
2022-08-25T10:04:57.458Z,99.90
2022-08-25T10:07:29.448Z,99.90
2022-08-25T10:10:01.659Z,99.90
2022-08-25T10:12:42.674Z,99.90
2022-08-25T10:15:16.376Z,99.90
2022-08-25T10:18:20.315Z,99.90
2022-08-25T10:21:07.647Z,99.90
2022-08-25T10:23:44.818Z,99.90
2022-08-25T10:26:29.678Z,99.90
2022-08-25T10:29:06.968Z,99.90
2022-08-25T10:31:44.076Z,99.90
2022-08-25T10:34:18.056Z,99.90
2022-08-25T10:37:11.601Z,99.90
2022-08-25T10:39:55.330Z,99.90
2022-08-25T10:42:47.241Z,99.90
2022-08-25T10:45:41.825Z,99.90
2022-08-25T10:48:31.289Z,99.90
2022-08-25T10:51:18.089Z,99.90
2022-08-25T10:54:15.051Z,99.90
2022-08-25T10:57:01.948Z,99.90
2022-08-25T11:00:00.057Z,99.90
2022-08-25T11:03:02.337Z,99.90
2022-08-25T11:05:40.738Z,99.90
2022-08-25T11:08:21.523Z,99.90
2022-08-25T11:11:13.116Z,99.90
2022-08-25T11:13:48.336Z,99.90
2022-08-25T11:16:28.180Z,99.90
2022-08-25T11:19:05.593Z,99.90
2022-08-25T11:21:59.536Z,95.80
2022-08-25T11:24:36.150Z,92.80
2022-08-25T11:27:10.222Z,89.50
2022-08-25T11:29:44.379Z,83.10
2022-08-25T11:32:12.021Z,76.00
2022-08-25T11:34:43.012Z,76.00
2022-08-25T11:37:28.080Z,63.80
2022-08-25T11:40:13.819Z,55.20
2022-08-25T11:43:00.009Z,54.40
2022-08-25T11:45:54.212Z,54.60
2022-08-25T11:48:46.176Z,56.10
2022-08-25T11:51:45.216Z,57.90
2022-08-25T11:54:29.463Z,53.20
2022-08-25T11:56:56.931Z,50.10
2022-08-25T11:59:50.073Z,47.10
2022-08-25T12:02:32.669Z,44.80
2022-08-25T12:05:00.750Z,43.60
2022-08-25T12:07:52.112Z,40.70
2022-08-25T12:10:23.560Z,40.20
2022-08-25T12:13:04.776Z,36.00
2022-08-25T12:15:56.843Z,34.10
2022-08-25T12:18:27.804Z,33.00
2022-08-25T12:20:55.330Z,30.60
2022-08-25T12:23:34.777Z,30.20
2022-08-25T12:26:11.245Z,26.00
2022-08-25T12:28:56.229Z,25.70
2022-08-25T12:31:33.142Z,24.10
2022-08-25T12:34:31.435Z,25.50
2022-08-25T12:37:06.618Z,19.60
2022-08-25T12:40:07.521Z,22.30
2022-08-25T12:42:39.731Z,16.80
2022-08-25T12:45:24.777Z,25.70
2022-08-25T12:47:54.763Z,12.40
2022-08-25T12:50:33.920Z,11.40
2022-08-25T12:53:15.966Z,10.30
2022-08-25T12:55:56.472Z,10.40
2022-08-25T12:58:43.756Z,8.80
2022-08-25T13:01:32.838Z,7.40
2022-08-25T13:04:09.531Z,7.80
2022-08-25T13:07:03.899Z,8.80
2022-08-25T13:09:50.769Z,8.80
2022-08-25T13:12:49.586Z,7.10
2022-08-25T13:15:47.160Z,5.70
2022-08-25T13:18:27.110Z,6.70
2022-08-25T13:21:11.754Z,5.80
2022-08-25T13:23:41.940Z,6.50
2022-08-25T13:26:17.119Z,7.50
2022-08-25T13:29:00.439Z,5.90
2022-08-25T13:31:30.053Z,4.70
2022-08-25T13:33:59.598Z,3.10
2022-08-25T13:36:54.339Z,3.20
2022-08-25T13:39:52.714Z,3.50
2022-08-25T13:42:16.621Z,1.40
2022-08-25T13:44:52.373Z,1.00
2022-08-25T13:47:45.225Z,1.00
2022-08-25T13:50:21.422Z,1.00
2022-08-25T13:53:04.403Z,1.00
2022-08-25T13:55:38.344Z,1.00
2022-08-25T13:58:24.473Z,1.00
2022-08-25T14:01:01.787Z,1.00
2022-08-25T14:03:49.713Z,1.00
2022-08-25T14:06:17.127Z,1.00
2022-08-25T14:09:03.572Z,1.00
2022-08-25T14:11:41.222Z,1.00
2022-08-25T14:14:12.654Z,1.00
2022-08-25T14:16:49.546Z,1.00
2022-08-25T14:19:20.353Z,1.00
2022-08-25T14:21:49.588Z,1.00
2022-08-25T14:24:18.383Z,5.90
2022-08-25T14:26:53.984Z,1.00
2022-08-25T14:29:22.525Z,1.00
2022-08-25T14:31:52.625Z,1.00
2022-08-25T14:34:24.078Z,1.00
2022-08-25T14:36:52.410Z,1.00
2022-08-25T14:39:19.899Z,1.00
2022-08-25T14:41:52.643Z,1.00
2022-08-25T14:44:21.759Z,1.00
2022-08-25T14:46:55.696Z,1.00
2022-08-25T14:49:33.832Z,1.00
2022-08-25T14:52:13.084Z,1.00
2022-08-25T14:54:40.638Z,1.00
2022-08-25T14:57:08.952Z,1.00
2022-08-25T14:59:36.489Z,1.00
2022-08-25T15:02:14.392Z,1.00
2022-08-25T15:04:42.323Z,1.00
2022-08-25T15:07:35.547Z,1.00
2022-08-25T15:10:03.090Z,1.00
2022-08-25T15:12:46.915Z,1.70
2022-08-25T15:15:15.291Z,1.00
2022-08-25T15:17:45.124Z,1.00
2022-08-25T15:20:12.986Z,1.00
2022-08-25T15:22:43.864Z,1.90
2022-08-25T15:25:11.714Z,1.00
2022-08-25T15:27:39.158Z,2.80
2022-08-25T15:30:07.622Z,3.40
2022-08-25T15:32:35.188Z,3.60
2022-08-25T15:35:02.963Z,13.80
2022-08-25T15:37:32.257Z,4.30
2022-08-25T15:39:59.929Z,3.60
2022-08-25T15:42:27.544Z,3.80
2022-08-25T15:44:56.293Z,4.60
2022-08-25T15:47:24.351Z,7.30
2022-08-25T15:50:11.497Z,8.00
2022-08-25T15:52:46.510Z,7.30
2022-08-25T15:55:15.600Z,8.00
2022-08-25T15:57:43.611Z,8.70
2022-08-25T16:00:13.641Z,9.50
2022-08-25T16:02:45.537Z,11.30
2022-08-25T16:05:16.419Z,13.10
2022-08-25T16:07:46.243Z,13.90
2022-08-25T16:10:19.579Z,15.10
2022-08-25T16:12:47.688Z,13.80
2022-08-25T16:15:16.237Z,15.30
2022-08-25T16:17:45.977Z,16.70
2022-08-25T16:20:17.881Z,16.60
2022-08-25T16:22:45.488Z,17.90
2022-08-25T16:25:13.610Z,19.50
2022-08-25T16:27:41.426Z,19.30
2022-08-25T16:30:17.515Z,21.60
2022-08-25T16:32:46.774Z,23.80
2022-08-25T16:35:14.440Z,25.70
2022-08-25T16:37:41.979Z,27.60
2022-08-25T16:40:13.685Z,26.60
2022-08-25T16:42:42.749Z,27.60
2022-08-25T16:45:10.582Z,29.60
2022-08-25T16:47:38.296Z,32.00
2022-08-25T16:50:10.832Z,35.00
2022-08-25T16:52:58.331Z,38.00
2022-08-25T16:55:29.159Z,38.80
2022-08-25T16:58:08.431Z,52.70
2022-08-25T17:00:41.436Z,44.20
2022-08-25T17:03:11.449Z,46.30
2022-08-25T17:05:43.128Z,48.00
2022-08-25T17:08:29.385Z,50.10
2022-08-25T17:11:14.522Z,51.80
2022-08-25T17:13:46.121Z,55.00
2022-08-25T17:16:14.572Z,58.00
2022-08-25T17:18:43.144Z,57.30
2022-08-25T17:21:24.595Z,62.30
2022-08-25T17:23:53.975Z,64.50
2022-08-25T17:26:27.583Z,66.70
2022-08-25T17:28:57.746Z,68.80
2022-08-25T17:31:28.360Z,72.70
2022-08-25T17:33:57.945Z,77.50
2022-08-25T17:36:27.157Z,80.50
2022-08-25T17:38:56.828Z,85.40
2022-08-25T17:41:25.041Z,86.80
2022-08-25T17:43:52.578Z,90.20
2022-08-25T17:46:21.375Z,92.50
2022-08-25T17:48:48.963Z,97.30
2022-08-25T17:51:16.515Z,99.90
2022-08-25T17:53:45.112Z,99.90
2022-08-25T17:56:17.472Z,99.90
2022-08-25T17:58:47.375Z,99.90
2022-08-25T18:01:17.920Z,99.90
2022-08-25T18:03:46.210Z,99.90
2022-08-25T18:06:15.197Z,99.90
2022-08-25T18:08:53.638Z,99.90
2022-08-25T18:11:23.726Z,99.90
2022-08-25T18:13:53.907Z,99.90
2022-08-25T18:16:22.911Z,99.90
2022-08-25T18:18:51.470Z,99.90
2022-08-25T18:21:22.473Z,99.90
2022-08-25T18:23:50.255Z,99.90
2022-08-25T18:26:21.921Z,99.90
2022-08-25T18:28:52.865Z,99.90
2022-08-25T18:31:20.383Z,99.90
2022-08-25T18:33:51.126Z,99.90
2022-08-25T18:36:20.999Z,99.90
2022-08-25T18:39:07.621Z,99.90
2022-08-25T18:41:40.075Z,99.90
2022-08-25T18:44:08.848Z,99.90
2022-08-25T18:46:39.925Z,99.90
2022-08-25T18:49:08.527Z,99.90
2022-08-25T18:51:36.574Z,99.90
2022-08-25T18:54:04.765Z,99.90
2022-08-25T18:56:33.436Z,99.90
2022-08-25T18:59:00.996Z,99.90
2022-08-25T19:01:28.900Z,1.00
2022-08-25T19:03:57.288Z,1.00
2022-08-25T19:06:24.750Z,1.00
2022-08-25T19:08:52.575Z,1.00
2022-08-25T19:11:22.465Z,1.00
2022-08-25T19:13:51.226Z,7.10
2022-08-25T19:16:33.721Z,1.00
2022-08-25T19:19:03.660Z,19.10
2022-08-25T19:21:34.645Z,91.30
2022-08-25T19:24:03.201Z,99.90
2022-08-25T19:26:31.024Z,99.90
2022-08-25T19:28:58.600Z,99.90
2022-08-25T19:31:27.755Z,99.90
2022-08-25T19:34:01.667Z,99.90
2022-08-25T19:36:30.315Z,1.00
2022-08-25T19:39:01.308Z,1.00
2022-08-25T19:41:29.700Z,1.00
2022-08-25T19:43:57.796Z,1.00
2022-08-25T19:46:35.313Z,95.40
2022-08-25T19:49:16.727Z,99.90
2022-08-25T19:51:50.549Z,99.90
2022-08-25T19:54:24.585Z,99.90
2022-08-25T19:56:55.332Z,99.90
2022-08-25T19:59:40.599Z,99.90
2022-08-25T20:02:15.399Z,99.90
2022-08-25T20:04:49.663Z,48.40
2022-08-25T20:07:20.271Z,1.00
2022-08-25T20:09:48.366Z,1.00
2022-08-25T20:12:16.318Z,27.90
2022-08-25T20:14:47.828Z,83.40
2022-08-25T20:17:24.642Z,97.40
2022-08-25T20:20:00.928Z,99.90
2022-08-25T20:22:32.513Z,99.90
2022-08-25T20:25:13.357Z,99.90
2022-08-25T20:27:45.302Z,99.90
2022-08-25T20:30:18.850Z,99.90
2022-08-25T20:32:46.581Z,1.00
2022-08-25T20:35:14.656Z,80.70
2022-08-25T20:37:44.598Z,99.90
2022-08-25T20:40:18.808Z,1.00
2022-08-25T20:42:53.178Z,99.90
2022-08-25T20:45:24.346Z,99.90
2022-08-25T20:47:52.122Z,99.90
2022-08-25T20:50:20.565Z,1.00
2022-08-25T20:52:48.527Z,1.00
2022-08-25T20:55:18.957Z,17.90
2022-08-25T20:57:47.004Z,99.90
2022-08-25T21:00:15.960Z,99.90
2022-08-25T21:02:46.322Z,99.90
2022-08-25T21:05:14.284Z,99.90
2022-08-25T21:07:42.028Z,99.90
2022-08-25T21:10:14.226Z,99.90
2022-08-25T21:12:42.986Z,99.90
2022-08-25T21:15:13.724Z,99.90
2022-08-25T21:17:50.010Z,1.00
2022-08-25T21:20:18.222Z,99.90
2022-08-25T21:22:45.770Z,99.90
2022-08-25T21:25:13.857Z,99.90
2022-08-25T21:27:41.382Z,99.90
2022-08-25T21:30:11.879Z,1.00
2022-08-25T21:32:39.409Z,95.10
2022-08-25T21:35:07.775Z,53.50
2022-08-25T21:37:35.517Z,1.00
2022-08-25T21:40:03.483Z,99.90
2022-08-25T21:42:34.602Z,99.90
2022-08-25T21:45:02.783Z,99.90
2022-08-25T21:47:30.337Z,1.00
2022-08-25T21:49:58.000Z,99.90
2022-08-25T21:52:25.449Z,99.90
2022-08-25T21:54:52.863Z,99.90
2022-08-25T21:57:23.653Z,99.90
2022-08-25T21:59:51.791Z,99.90
2022-08-25T22:02:22.608Z,99.90
2022-08-25T22:04:53.952Z,99.90
2022-08-25T22:07:24.469Z,99.90
2022-08-25T22:09:52.742Z,1.00
2022-08-25T22:12:20.215Z,99.90
2022-08-25T22:14:47.777Z,99.90
2022-08-25T22:17:16.552Z,99.90
2022-08-25T22:19:45.857Z,99.90
2022-08-25T22:22:13.947Z,1.00
2022-08-25T22:24:41.813Z,1.00
2022-08-25T22:27:11.378Z,1.70
2022-08-25T22:29:43.786Z,99.90
2022-08-25T22:32:13.529Z,99.90
2022-08-25T22:34:41.545Z,99.90
2022-08-25T22:37:11.206Z,1.00
2022-08-25T22:39:40.302Z,52.80
2022-08-25T22:42:08.201Z,1.00
2022-08-25T22:44:38.783Z,1.00
2022-08-25T22:47:07.638Z,99.90
2022-08-25T22:49:35.605Z,1.00
2022-08-25T22:52:03.333Z,99.90
2022-08-25T22:54:30.820Z,99.90
2022-08-25T22:57:04.590Z,99.90
2022-08-25T22:59:34.009Z,99.90
2022-08-25T23:02:01.705Z,99.90
2022-08-25T23:04:29.846Z,99.90
2022-08-25T23:06:57.423Z,99.90
2022-08-25T23:09:25.009Z,99.90
2022-08-25T23:11:52.743Z,99.90
2022-08-25T23:14:20.952Z,99.90
2022-08-25T23:16:50.370Z,1.00
2022-08-25T23:19:18.671Z,1.00
2022-08-25T23:22:05.987Z,99.90
2022-08-25T23:24:33.505Z,99.90
2022-08-25T23:27:03.834Z,99.90
2022-08-25T23:29:34.378Z,99.90
2022-08-25T23:32:04.188Z,1.00
2022-08-25T23:34:31.747Z,1.00
2022-08-25T23:37:02.202Z,1.00
2022-08-25T23:39:29.975Z,99.90
2022-08-25T23:41:58.462Z,99.90
2022-08-25T23:44:27.389Z,99.90
2022-08-25T23:46:55.254Z,99.90
2022-08-25T23:49:25.483Z,1.00
2022-08-25T23:51:53.451Z,99.90
2022-08-25T23:54:21.668Z,99.90
2022-08-25T23:56:58.895Z,99.90
2022-08-25T23:59:26.332Z,1.00
